Terminal Aerodrome Forecast
Issued by NWS

Home | Current Version | Previous Version | Text Only | Print | Product List | Glossary On
Versions: 1 2 3 4 5 6 7 8 9 10 11 12 13 14 15 16 17 18
000
FTUS41 KBOX 211721
TAFACK
TAF
KACK 211721Z 2118/2218 33006KT P6SM FEW200
     FM220700 VRB03KT P6SM BKN050
     FM221300 15004KT 6SM BR VCSH OVC020
     FM221700 15004KT 5SM -RA BR OVC010=

USA.gov is the U.S. government's official web portal to all federal, state and local government web resources and services.